createdAt,value
2023-08-27T00:02:27.498Z,99032.38
2023-08-27T00:04:56.614Z,99037.97
2023-08-27T00:07:25.226Z,99037.50
2023-08-27T00:09:53.141Z,99039.38
2023-08-27T00:12:21.069Z,99037.22
2023-08-27T00:14:50.409Z,99031.41
2023-08-27T00:17:18.307Z,99031.63
2023-08-27T00:19:46.232Z,99023.44
2023-08-27T00:22:14.166Z,99016.91
2023-08-27T00:24:42.076Z,99011.91
2023-08-27T00:27:09.970Z,99003.53
2023-08-27T00:29:37.852Z,99014.69
2023-08-27T00:32:19.319Z,99009.56
2023-08-27T00:34:52.650Z,99003.31
2023-08-27T00:37:21.340Z,99010.81
2023-08-27T00:39:49.302Z,99014.41
2023-08-27T00:42:17.266Z,99008.59
2023-08-27T00:44:45.376Z,99001.66
2023-08-27T00:47:16.850Z,99004.00
2023-08-27T00:49:45.299Z,99007.56
2023-08-27T00:52:14.269Z,99009.31
2023-08-27T00:54:42.794Z,99002.41
2023-08-27T00:57:11.128Z,99006.31
2023-08-27T00:59:39.301Z,99005.09
2023-08-27T01:02:07.201Z,99001.28
2023-08-27T01:04:36.535Z,98989.34
2023-08-27T01:07:12.773Z,98995.72
2023-08-27T01:09:48.134Z,98993.59
2023-08-27T01:12:25.568Z,98996.59
2023-08-27T01:14:55.416Z,99007.03
2023-08-27T01:17:24.366Z,99012.31
2023-08-27T01:19:53.743Z,99018.31
2023-08-27T01:22:23.052Z,99019.66
2023-08-27T01:24:50.973Z,99023.88
2023-08-27T01:27:28.265Z,99026.19
2023-08-27T01:30:04.775Z,99017.38
2023-08-27T01:32:39.286Z,99000.78
2023-08-27T01:35:12.647Z,98994.25
2023-08-27T01:37:42.651Z,98992.66
2023-08-27T01:40:11.689Z,98997.00
2023-08-27T01:42:41.058Z,98992.38
2023-08-27T01:45:11.057Z,98999.72
2023-08-27T01:47:39.099Z,98999.50
2023-08-27T01:50:08.431Z,98993.53
2023-08-27T01:52:37.270Z,99004.38
2023-08-27T01:55:08.923Z,98992.47
2023-08-27T01:57:37.139Z,98989.81
2023-08-27T02:00:10.146Z,98972.16
2023-08-27T02:02:43.632Z,98976.44
2023-08-27T02:05:12.222Z,98965.38
2023-08-27T02:07:41.821Z,98985.22
2023-08-27T02:10:11.504Z,98975.47
2023-08-27T02:12:39.472Z,98970.97
2023-08-27T02:15:08.885Z,98967.63
2023-08-27T02:17:39.187Z,98967.63
2023-08-27T02:20:11.391Z,98968.88
2023-08-27T02:22:39.854Z,98958.63
2023-08-27T02:25:08.731Z,98965.06
2023-08-27T02:27:38.028Z,98972.72
2023-08-27T02:30:07.322Z,98974.50
2023-08-27T02:32:37.023Z,98980.72
2023-08-27T02:35:05.417Z,98986.25
2023-08-27T02:37:33.369Z,98982.66
2023-08-27T02:40:01.297Z,98987.91
2023-08-27T02:42:29.258Z,98996.00
2023-08-27T02:44:58.509Z,98992.88
2023-08-27T02:47:26.469Z,98991.94
2023-08-27T02:49:56.849Z,98985.34
2023-08-27T02:52:24.802Z,98984.28
2023-08-27T02:54:52.858Z,98979.94
2023-08-27T02:57:20.856Z,98973.06
2023-08-27T02:59:49.123Z,98957.31
2023-08-27T03:02:18.613Z,98971.44
2023-08-27T03:04:46.543Z,98965.63
2023-08-27T03:07:15.670Z,98968.31
2023-08-27T03:09:43.594Z,98971.06
2023-08-27T03:12:11.471Z,98975.75
2023-08-27T03:14:39.341Z,98968.47
2023-08-27T03:17:07.328Z,98966.53
2023-08-27T03:19:36.588Z,98965.44
2023-08-27T03:22:04.807Z,98962.72
2023-08-27T03:24:32.863Z,98974.69
2023-08-27T03:27:00.844Z,98970.47
2023-08-27T03:29:30.586Z,98972.13
2023-08-27T03:31:58.602Z,98970.41
2023-08-27T03:34:26.622Z,98974.69
2023-08-27T03:36:55.987Z,98981.47
2023-08-27T03:39:24.001Z,98971.53
2023-08-27T03:41:51.944Z,98978.97
2023-08-27T03:44:19.829Z,98966.41
2023-08-27T03:46:47.776Z,98969.56
2023-08-27T03:49:15.906Z,98973.88
2023-08-27T03:51:45.436Z,98976.59
2023-08-27T03:54:15.545Z,98969.09
2023-08-27T03:56:43.493Z,98959.81
2023-08-27T03:59:11.394Z,98970.13
2023-08-27T04:01:39.438Z,98963.44
2023-08-27T04:04:07.488Z,98961.91
2023-08-27T04:06:35.814Z,98960.88
2023-08-27T04:09:05.283Z,98962.53
2023-08-27T04:11:34.612Z,98959.09
2023-08-27T04:14:02.525Z,98963.34
2023-08-27T04:16:31.192Z,98965.00
2023-08-27T04:18:59.103Z,98960.66
2023-08-27T04:21:27.121Z,98948.69
2023-08-27T04:23:56.717Z,98954.63
2023-08-27T04:26:25.318Z,98963.09
2023-08-27T04:28:56.030Z,98960.66
2023-08-27T04:31:24.042Z,98948.38
2023-08-27T04:33:52.000Z,98958.44
2023-08-27T04:36:21.202Z,98967.72
2023-08-27T04:38:49.084Z,98958.22
2023-08-27T04:41:17.044Z,98962.38
2023-08-27T04:43:46.244Z,98959.22
2023-08-27T04:46:15.602Z,98951.66
2023-08-27T04:48:43.587Z,98960.09
2023-08-27T04:51:11.552Z,98947.38
2023-08-27T04:53:39.480Z,98949.03
2023-08-27T04:56:07.442Z,98951.41
2023-08-27T04:58:36.384Z,98956.53
2023-08-27T05:01:04.624Z,98954.78
2023-08-27T05:03:34.379Z,98955.47
2023-08-27T05:06:02.384Z,98960.47
2023-08-27T05:08:30.341Z,98955.47
2023-08-27T05:10:58.412Z,98961.41
2023-08-27T05:13:28.092Z,98955.41
2023-08-27T05:15:56.038Z,98950.78
2023-08-27T05:18:24.141Z,98951.34
2023-08-27T05:20:53.581Z,98944.44
2023-08-27T05:23:23.829Z,98932.16
2023-08-27T05:25:52.031Z,98927.69
2023-08-27T05:28:21.028Z,98925.88
2023-08-27T05:30:49.037Z,98934.22
2023-08-27T05:33:17.319Z,98926.31
2023-08-27T05:35:45.344Z,98922.88
2023-08-27T05:38:14.705Z,98921.94
2023-08-27T05:40:42.746Z,98920.84
2023-08-27T05:43:10.644Z,98914.63
2023-08-27T05:45:38.561Z,98904.16
2023-08-27T05:48:07.849Z,98906.66
2023-08-27T05:50:38.024Z,98903.13
2023-08-27T05:53:06.239Z,98896.28
2023-08-27T05:55:37.311Z,98898.63
2023-08-27T05:58:06.471Z,98899.19
2023-08-27T06:00:35.571Z,98901.31
2023-08-27T06:03:04.881Z,98894.06
2023-08-27T06:05:33.228Z,98892.81
2023-08-27T06:08:03.996Z,98902.78
2023-08-27T06:10:33.078Z,98911.53
2023-08-27T06:13:04.496Z,98928.47
2023-08-27T06:15:35.597Z,98922.09
2023-08-27T06:18:04.904Z,98926.63
2023-08-27T06:20:33.292Z,98928.94
2023-08-27T06:23:01.824Z,98917.41
2023-08-27T06:25:29.733Z,98918.19
2023-08-27T06:27:58.291Z,98930.47
2023-08-27T06:30:27.837Z,98924.72
2023-08-27T06:32:56.292Z,98908.34
2023-08-27T06:35:24.926Z,98909.34
2023-08-27T06:37:52.829Z,98899.13
2023-08-27T06:40:21.008Z,98896.84
2023-08-27T06:42:48.982Z,98898.00
2023-08-27T06:45:23.065Z,98896.97
2023-08-27T06:47:53.071Z,98894.34
2023-08-27T06:50:21.226Z,98894.44
2023-08-27T06:52:49.346Z,98894.63
2023-08-27T06:55:17.501Z,98898.25
2023-08-27T06:57:45.500Z,98895.28
2023-08-27T07:00:14.422Z,98888.19
2023-08-27T07:02:45.197Z,98875.63
2023-08-27T07:05:15.238Z,98871.63
2023-08-27T07:07:44.069Z,98867.59
2023-08-27T07:10:13.091Z,98863.66
2023-08-27T07:12:41.813Z,98865.06
2023-08-27T07:15:12.035Z,98869.06
2023-08-27T07:17:40.902Z,98856.47
2023-08-27T07:20:10.309Z,98853.72
2023-08-27T07:22:39.711Z,98861.34
2023-08-27T07:25:10.069Z,98847.28
2023-08-27T07:27:38.778Z,98863.66
2023-08-27T07:30:09.020Z,98862.25
2023-08-27T07:32:37.910Z,98857.09
2023-08-27T07:35:08.656Z,98865.91
2023-08-27T07:37:39.758Z,98869.63
2023-08-27T07:40:11.798Z,98861.53
2023-08-27T07:42:40.135Z,98876.69
2023-08-27T07:45:09.090Z,98873.22
2023-08-27T07:47:37.507Z,98865.31
2023-08-27T07:50:07.173Z,98870.28
2023-08-27T07:52:35.158Z,98866.16
2023-08-27T07:55:05.381Z,98863.56
2023-08-27T07:57:33.376Z,98860.03
2023-08-27T08:00:01.371Z,98863.09
2023-08-27T08:02:30.497Z,98859.69
2023-08-27T08:04:59.675Z,98866.63
2023-08-27T08:07:27.703Z,98867.03
2023-08-27T08:09:55.753Z,98861.16
2023-08-27T08:12:24.986Z,98861.97
2023-08-27T08:14:54.124Z,98856.38
2023-08-27T08:17:28.863Z,98860.19
2023-08-27T08:20:04.866Z,98858.06
2023-08-27T08:22:32.819Z,98859.56
2023-08-27T08:25:00.992Z,98853.41
2023-08-27T08:27:30.240Z,98843.31
2023-08-27T08:29:58.250Z,98854.00
2023-08-27T08:32:26.112Z,98854.38
2023-08-27T08:34:55.175Z,98852.22
2023-08-27T08:37:23.378Z,98844.41
2023-08-27T08:39:51.586Z,98847.63
2023-08-27T08:42:28.654Z,98844.84
2023-08-27T08:45:08.664Z,98839.69
2023-08-27T08:47:37.857Z,98838.06
2023-08-27T08:50:09.387Z,98832.19
2023-08-27T08:52:40.665Z,98829.81
2023-08-27T08:55:10.613Z,98831.81
2023-08-27T08:57:44.558Z,98826.09
2023-08-27T09:00:15.177Z,98821.69
2023-08-27T09:02:44.827Z,98818.03
2023-08-27T09:05:13.446Z,98800.59
2023-08-27T09:07:43.879Z,98783.13
2023-08-27T09:10:13.634Z,98779.44
2023-08-27T09:12:42.845Z,98792.69
2023-08-27T09:15:11.576Z,98799.84
2023-08-27T09:17:41.096Z,98809.56
2023-08-27T09:20:09.839Z,98815.28
2023-08-27T09:22:38.965Z,98797.16
2023-08-27T09:25:08.032Z,98787.88
2023-08-27T09:27:36.116Z,98786.97
2023-08-27T09:30:05.651Z,98793.88
2023-08-27T09:32:34.746Z,98790.47
2023-08-27T09:35:05.789Z,98793.41
2023-08-27T09:37:40.310Z,98787.53
2023-08-27T09:40:09.505Z,98790.09
2023-08-27T09:42:37.979Z,98789.19
2023-08-27T09:45:08.085Z,98786.78
2023-08-27T09:47:38.199Z,98785.31
2023-08-27T09:50:09.613Z,98796.44
2023-08-27T09:52:37.535Z,98787.78
2023-08-27T09:55:07.156Z,98795.34
2023-08-27T09:57:35.078Z,98794.13
2023-08-27T10:00:09.434Z,98787.06
2023-08-27T10:02:45.113Z,98778.34
2023-08-27T10:05:16.702Z,98783.25
2023-08-27T10:07:57.255Z,98790.94
2023-08-27T10:10:26.050Z,98795.06
2023-08-27T10:12:54.503Z,98792.50
2023-08-27T10:15:24.421Z,98798.28
2023-08-27T10:17:54.480Z,98787.88
2023-08-27T10:20:23.833Z,98788.63
2023-08-27T10:22:52.283Z,98776.47
2023-08-27T10:25:20.527Z,98762.88
2023-08-27T10:27:50.229Z,98769.28
2023-08-27T10:30:19.931Z,98766.69
2023-08-27T10:32:48.446Z,98764.59
2023-08-27T10:35:17.667Z,98760.06
2023-08-27T10:37:53.160Z,98746.19
2023-08-27T10:40:22.802Z,98744.00
2023-08-27T10:42:50.778Z,98740.13
2023-08-27T10:45:21.523Z,98736.63
2023-08-27T10:48:07.719Z,98739.69
2023-08-27T10:50:48.049Z,98733.31
2023-08-27T10:53:18.354Z,98733.81
2023-08-27T10:55:52.265Z,98735.38
2023-08-27T10:58:22.241Z,98737.22
2023-08-27T11:01:03.452Z,98736.28
2023-08-27T11:03:52.820Z,98727.66
2023-08-27T11:06:21.406Z,98726.53
2023-08-27T11:08:54.025Z,98715.94
2023-08-27T11:11:26.240Z,98720.06
2023-08-27T11:14:17.628Z,98716.56
2023-08-27T11:16:49.646Z,98723.38
2023-08-27T11:19:30.995Z,98724.91
2023-08-27T11:22:07.721Z,98724.59
2023-08-27T11:24:39.871Z,98715.06
2023-08-27T11:27:08.183Z,98719.81
2023-08-27T11:29:39.591Z,98712.72
2023-08-27T11:32:09.026Z,98714.47
2023-08-27T11:34:38.179Z,98707.03
2023-08-27T11:37:06.680Z,98713.44
2023-08-27T11:39:36.187Z,98715.31
2023-08-27T11:42:10.486Z,98709.72
2023-08-27T11:44:47.380Z,98709.66
2023-08-27T11:47:15.299Z,98701.69
2023-08-27T11:49:43.230Z,98707.59
2023-08-27T11:52:11.268Z,98705.78
2023-08-27T11:54:39.181Z,98701.66
2023-08-27T11:57:08.575Z,98698.25
2023-08-27T11:59:36.546Z,98704.03
2023-08-27T12:02:04.894Z,98709.91
2023-08-27T12:04:34.071Z,98707.44
2023-08-27T12:07:03.722Z,98699.59
2023-08-27T12:09:33.053Z,98704.75
2023-08-27T12:12:03.668Z,98707.59
2023-08-27T12:14:33.068Z,98698.09
2023-08-27T12:17:53.744Z,98706.91
2023-08-27T12:20:32.588Z,98691.69
2023-08-27T12:23:12.017Z,98696.06
2023-08-27T12:25:47.332Z,98693.56
2023-08-27T12:28:15.380Z,98696.06
2023-08-27T12:30:49.182Z,98694.72
2023-08-27T12:33:17.133Z,98695.31
2023-08-27T12:35:46.032Z,98688.50
2023-08-27T12:38:14.447Z,98691.44
2023-08-27T12:40:42.447Z,98685.91
2023-08-27T12:43:10.365Z,98695.91
2023-08-27T12:45:38.304Z,98688.59
2023-08-27T12:48:08.385Z,98686.47
2023-08-27T12:50:36.374Z,98698.22
2023-08-27T12:53:04.563Z,98695.34
2023-08-27T12:55:32.515Z,98691.84
2023-08-27T12:58:00.597Z,98699.06
2023-08-27T13:00:28.810Z,98683.94
2023-08-27T13:02:58.016Z,98681.16
2023-08-27T13:05:27.646Z,98672.31
2023-08-27T13:08:01.709Z,98678.56
2023-08-27T13:10:30.062Z,98675.75
2023-08-27T13:12:58.112Z,98675.75
2023-08-27T13:15:26.278Z,98671.28
2023-08-27T13:17:54.280Z,98676.59
2023-08-27T13:20:22.432Z,98672.47
2023-08-27T13:22:51.640Z,98669.63
2023-08-27T13:25:19.503Z,98664.06
2023-08-27T13:27:47.890Z,98657.13
2023-08-27T13:30:15.942Z,98660.41
2023-08-27T13:32:43.829Z,98659.47
2023-08-27T13:35:11.723Z,98659.69
2023-08-27T13:37:39.670Z,98664.56
2023-08-27T13:40:09.897Z,98664.56
2023-08-27T13:42:37.825Z,98652.25
2023-08-27T13:45:06.465Z,98658.59
2023-08-27T13:47:34.530Z,98653.28
2023-08-27T13:50:02.606Z,98658.47
2023-08-27T13:52:31.046Z,98660.34
2023-08-27T13:54:59.017Z,98657.47
2023-08-27T13:57:28.519Z,98643.38
2023-08-27T13:59:56.692Z,98638.81
2023-08-27T14:02:24.650Z,98647.75
2023-08-27T14:04:52.712Z,98633.38
2023-08-27T14:07:20.568Z,98631.72
2023-08-27T14:09:48.481Z,98637.19
2023-08-27T14:12:16.926Z,98630.34
2023-08-27T14:14:46.534Z,98613.66
2023-08-27T14:17:14.494Z,98626.97
2023-08-27T14:19:42.446Z,98615.13
2023-08-27T14:22:10.411Z,98627.56
2023-08-27T14:24:38.366Z,98614.06
2023-08-27T14:27:06.612Z,98625.56
2023-08-27T14:29:34.512Z,98613.81
2023-08-27T14:32:04.571Z,98606.28
2023-08-27T14:34:33.050Z,98599.63
2023-08-27T14:37:01.158Z,98604.81
2023-08-27T14:39:29.462Z,98606.78
2023-08-27T14:41:57.394Z,98599.38
2023-08-27T14:44:25.318Z,98600.06
2023-08-27T14:46:53.314Z,98601.19
2023-08-27T14:49:22.684Z,98604.34
2023-08-27T14:51:50.600Z,98603.91
2023-08-27T14:54:18.569Z,98597.88
2023-08-27T14:56:47.025Z,98599.13
2023-08-27T14:59:40.226Z,98606.09
2023-08-27T15:02:09.580Z,98611.69
2023-08-27T15:04:38.849Z,98614.47
2023-08-27T15:07:06.998Z,98611.88
2023-08-27T15:09:35.284Z,98605.25
2023-08-27T15:12:03.752Z,98614.28
2023-08-27T15:14:31.838Z,98615.94
2023-08-27T15:16:59.708Z,98611.69
2023-08-27T15:19:27.661Z,98603.78
2023-08-27T15:21:56.907Z,98613.47
2023-08-27T15:24:24.772Z,98609.00
2023-08-27T15:26:52.693Z,98607.81
2023-08-27T15:29:20.645Z,98603.47
2023-08-27T15:31:48.649Z,98612.09
2023-08-27T15:34:16.668Z,98607.91
2023-08-27T15:36:44.535Z,98613.25
2023-08-27T15:39:13.810Z,98616.63
2023-08-27T15:41:41.855Z,98614.41
2023-08-27T15:44:09.844Z,98607.97
2023-08-27T15:46:37.919Z,98601.50
2023-08-27T15:49:06.046Z,98603.19
2023-08-27T15:51:34.025Z,98607.34
2023-08-27T15:54:01.964Z,98605.19
2023-08-27T15:56:31.295Z,98597.84
2023-08-27T15:58:59.294Z,98598.78
2023-08-27T16:01:27.222Z,98591.00
2023-08-27T16:03:55.204Z,98589.75
2023-08-27T16:06:23.664Z,98589.19
2023-08-27T16:08:54.841Z,98592.59
2023-08-27T16:11:23.121Z,98599.03
2023-08-27T16:13:52.631Z,98588.97
2023-08-27T16:16:23.288Z,98586.13
2023-08-27T16:18:52.248Z,98580.63
2023-08-27T16:21:20.249Z,98590.06
2023-08-27T16:23:48.253Z,98591.81
2023-08-27T16:26:16.421Z,98581.44
2023-08-27T16:28:44.357Z,98582.41
2023-08-27T16:31:19.827Z,98575.97
2023-08-27T16:33:48.681Z,98581.66
2023-08-27T16:36:16.610Z,98571.22
2023-08-27T16:38:44.570Z,98573.13
2023-08-27T16:41:12.794Z,98575.03
2023-08-27T16:43:40.764Z,98574.66
2023-08-27T16:46:08.795Z,98574.97
2023-08-27T16:48:39.459Z,98566.91
2023-08-27T16:51:08.399Z,98580.84
2023-08-27T16:53:36.255Z,98581.63
2023-08-27T16:56:04.226Z,98580.47
2023-08-27T16:58:32.136Z,98581.94
2023-08-27T17:01:00.033Z,98579.84
2023-08-27T17:03:28.157Z,98581.97
2023-08-27T17:05:58.622Z,98577.94
2023-08-27T17:08:26.859Z,98569.47
2023-08-27T17:10:55.015Z,98574.88
2023-08-27T17:13:22.979Z,98571.47
2023-08-27T17:15:50.907Z,98581.72
2023-08-27T17:18:18.860Z,98583.22
2023-08-27T17:20:50.617Z,98582.97
2023-08-27T17:23:20.236Z,98588.81
2023-08-27T17:25:48.149Z,98589.25
2023-08-27T17:28:16.170Z,98587.34
2023-08-27T17:30:44.135Z,98595.50
2023-08-27T17:33:12.895Z,98590.88
2023-08-27T17:35:41.311Z,98594.84
2023-08-27T17:38:09.228Z,98595.38
2023-08-27T17:40:39.496Z,98604.50
2023-08-27T17:43:07.414Z,98608.22
2023-08-27T17:45:35.444Z,98607.81
2023-08-27T17:48:07.861Z,98607.41
2023-08-27T17:50:36.057Z,98610.44
2023-08-27T17:53:04.362Z,98614.22
2023-08-27T17:55:32.442Z,98619.69
2023-08-27T17:58:02.440Z,98618.38
2023-08-27T18:00:30.748Z,98625.41
2023-08-27T18:02:58.843Z,98630.97
2023-08-27T18:05:26.906Z,98629.41
2023-08-27T18:07:54.860Z,98633.84
2023-08-27T18:10:22.944Z,98636.75
2023-08-27T18:12:50.858Z,98639.44
2023-08-27T18:15:20.405Z,98633.16
2023-08-27T18:17:48.325Z,98641.50
2023-08-27T18:20:16.419Z,98648.31
2023-08-27T18:22:44.328Z,98652.72
2023-08-27T18:25:12.232Z,98646.84
2023-08-27T18:27:40.126Z,98653.97
2023-08-27T18:30:09.322Z,98661.88
2023-08-27T18:32:43.915Z,98658.72
2023-08-27T18:35:11.970Z,98639.59
2023-08-27T18:37:40.288Z,98658.91
2023-08-27T18:40:09.589Z,98656.34
2023-08-27T18:42:37.774Z,98654.88
2023-08-27T18:45:06.567Z,98661.03
2023-08-27T18:47:34.548Z,98667.22
2023-08-27T18:50:04.388Z,98672.69
2023-08-27T18:52:32.356Z,98677.22
2023-08-27T18:55:02.191Z,98680.69
2023-08-27T18:57:30.343Z,98675.66
2023-08-27T18:59:58.363Z,98686.97
2023-08-27T19:02:26.722Z,98689.75
2023-08-27T19:04:54.750Z,98701.56
2023-08-27T19:07:24.222Z,98697.00
2023-08-27T19:09:52.084Z,98708.13
2023-08-27T19:12:20.188Z,98700.50
2023-08-27T19:14:48.056Z,98703.25
2023-08-27T19:17:16.447Z,98700.09
2023-08-27T19:19:44.705Z,98706.06
2023-08-27T19:22:12.651Z,98702.56
2023-08-27T19:24:43.594Z,98709.34
2023-08-27T19:27:11.607Z,98715.44
2023-08-27T19:29:39.513Z,98721.59
2023-08-27T19:32:07.449Z,98712.50
2023-08-27T19:34:35.405Z,98715.28
2023-08-27T19:37:03.364Z,98722.25
2023-08-27T19:39:31.260Z,98712.13
2023-08-27T19:42:00.483Z,98721.59
2023-08-27T19:44:28.406Z,98717.50
2023-08-27T19:46:56.400Z,98723.66
2023-08-27T19:49:24.328Z,98723.84
2023-08-27T19:51:52.223Z,98719.69
2023-08-27T19:54:20.334Z,98717.13
2023-08-27T19:56:48.222Z,98713.28
2023-08-27T19:59:19.817Z,98718.63
2023-08-27T20:01:49.134Z,98712.66
2023-08-27T20:04:17.820Z,98700.06
2023-08-27T20:06:46.784Z,98714.31
2023-08-27T20:09:14.957Z,98710.19
2023-08-27T20:11:43.271Z,98722.31
2023-08-27T20:14:11.206Z,98725.00
2023-08-27T20:16:40.475Z,98722.16
2023-08-27T20:19:08.428Z,98727.19
2023-08-27T20:21:36.410Z,98728.94
2023-08-27T20:24:05.241Z,98718.00
2023-08-27T20:26:33.795Z,98726.47
2023-08-27T20:29:01.921Z,98723.25
2023-08-27T20:31:29.971Z,98730.34
2023-08-27T20:33:59.429Z,98726.91
2023-08-27T20:36:27.477Z,98729.84
2023-08-27T20:38:55.417Z,98735.16
2023-08-27T20:41:23.645Z,98735.81
2023-08-27T20:43:52.269Z,98744.34
2023-08-27T20:46:20.853Z,98739.94
2023-08-27T20:48:48.749Z,98735.72
2023-08-27T20:51:18.056Z,98746.00
2023-08-27T20:53:46.371Z,98747.84
2023-08-27T20:56:14.388Z,98745.69
2023-08-27T20:58:42.447Z,98749.00
2023-08-27T21:01:10.900Z,98747.34
2023-08-27T21:03:39.397Z,98749.28
2023-08-27T21:06:07.665Z,98755.41
2023-08-27T21:08:36.949Z,98751.19
2023-08-27T21:11:09.080Z,98752.22
2023-08-27T21:13:37.637Z,98754.41
2023-08-27T21:16:05.997Z,98758.63
2023-08-27T21:18:34.037Z,98753.00
2023-08-27T21:21:02.029Z,98770.00
2023-08-27T21:23:29.968Z,98771.66
2023-08-27T21:26:00.394Z,98775.13
2023-08-27T21:28:28.474Z,98773.63
2023-08-27T21:30:57.971Z,98773.72
2023-08-27T21:33:28.736Z,98773.81
2023-08-27T21:35:56.682Z,98773.69
2023-08-27T21:38:24.592Z,98774.78
2023-08-27T21:40:55.144Z,98770.84
2023-08-27T21:43:24.436Z,98773.06
2023-08-27T21:45:52.321Z,98775.78
2023-08-27T21:48:20.308Z,98777.00
2023-08-27T21:50:48.250Z,98767.41
2023-08-27T21:53:16.700Z,98762.97
2023-08-27T21:55:44.620Z,98768.91
2023-08-27T21:58:12.495Z,98785.63
2023-08-27T22:00:42.069Z,98781.56
2023-08-27T22:03:10.020Z,98786.06
2023-08-27T22:05:38.005Z,98777.44
2023-08-27T22:08:06.761Z,98778.31
2023-08-27T22:10:35.671Z,98785.75
2023-08-27T22:13:05.370Z,98777.34
2023-08-27T22:15:33.518Z,98784.91
2023-08-27T22:18:02.960Z,98784.72
2023-08-27T22:20:31.330Z,98781.38
2023-08-27T22:22:59.759Z,98790.03
2023-08-27T22:25:28.021Z,98789.44
2023-08-27T22:27:55.926Z,98785.22
2023-08-27T22:30:23.927Z,98789.44
2023-08-27T22:32:51.949Z,98782.50
2023-08-27T22:35:21.889Z,98790.94
2023-08-27T22:37:49.898Z,98790.75
2023-08-27T22:40:18.096Z,98785.63
2023-08-27T22:42:46.765Z,98795.16
2023-08-27T22:45:14.722Z,98789.28
2023-08-27T22:47:42.729Z,98784.16
2023-08-27T22:50:10.926Z,98766.19
2023-08-27T22:52:40.352Z,98783.78
2023-08-27T22:55:09.157Z,98777.00
2023-08-27T22:57:37.079Z,98771.41
2023-08-27T23:00:07.085Z,98777.19
2023-08-27T23:02:35.032Z,98770.22
2023-08-27T23:05:03.265Z,98769.06
2023-08-27T23:07:31.405Z,98769.75
2023-08-27T23:10:00.664Z,98774.03
2023-08-27T23:12:28.565Z,98773.22
2023-08-27T23:14:56.518Z,98762.13
2023-08-27T23:17:24.543Z,98768.16
2023-08-27T23:19:52.518Z,98773.88
2023-08-27T23:22:20.426Z,98774.03
2023-08-27T23:24:48.678Z,98774.28
2023-08-27T23:27:17.997Z,98780.41
2023-08-27T23:29:45.845Z,98778.06
2023-08-27T23:32:13.839Z,98778.72
2023-08-27T23:34:41.776Z,98776.00
2023-08-27T23:37:09.766Z,98784.47
2023-08-27T23:39:38.461Z,98780.09
2023-08-27T23:42:06.653Z,98781.75
2023-08-27T23:44:36.919Z,98753.31
2023-08-27T23:47:05.440Z,98777.50
2023-08-27T23:49:33.362Z,98775.84
2023-08-27T23:52:01.309Z,98779.50
2023-08-27T23:54:29.317Z,98772.84
2023-08-27T23:56:57.307Z,98778.31
2023-08-27T23:59:25.830Z,98778.47
